Chihuahua Valley (212) Station Data

Red Flag Warning: Yes
Fire Weather Zone: 258
SDGE Region: Ramona
Lat/Lon: 33.387/-116.661

Observations

Time Wind Speed/Gust Temp(F) RH Fuel Moist Fuel Temp(F) Dewpt(F) Tmax(F) Tmin(F) Accum Precip 10-min Precip SL Press(mb)
6/27 5:00pm 262 11 G 20 84° 7% - - 14° 87.7° 59.2° - - 1007.0
6/27 4:50pm 256 13 G 24 84° 7% - - 14° 87.7° 59.2° - - 1007.0
6/27 4:40pm 255 12 G 23 85° 7% - - 15° 87.7° 59.2° - - 1007.0
6/27 4:30pm 264 12 G 19 85° 7% - - 15° 87.7° 59.2° - - 1007.0
6/27 4:20pm 266 13 G 22 85° 7% - - 15° 87.7° 59.2° - - 1007.0
6/27 4:10pm 262 11 G 20 86° 7% - - 15° 87.7° 59.2° - - 1007.0
6/27 4:00pm 264 13 G 23 85° 8% - - 16° 87.7° 59.2° - - 1007.0
6/27 3:50pm 274 12 G 21 86° 8% - - 17° 87.7° 59.2° - - 1008.0
6/27 3:40pm 264 12 G 22 85° 8% - - 17° 87.7° 59.2° - - 1008.0
6/27 3:30pm 262 12 G 20 85° 8% - - 18° 87.7° 59.2° - - 1008.0
6/27 3:20pm 261 14 G 21 85° 8% - - 17° 87.7° 59.2° - - 1008.0
6/27 3:10pm 253 11 G 21 85° 9% - - 19° 87.7° 59.2° - - 1008.0
6/27 3:00pm 249 12 G 21 86° 8% - - 18° 87.7° 59.2° - - 1008.0
6/27 2:50pm 259 12 G 21 85° 8% - - 17° 87.7° 59.2° - - 1008.0
6/27 2:40pm 262 12 G 24 85° 8% - - 18° 87.7° 59.2° - - 1008.0
6/27 2:30pm 256 12 G 21 86° 8% - - 18° 87.7° 59.2° - - 1008.0
6/27 2:20pm 244 11 G 21 86° 8% - - 17° 87.7° 59.2° - - 1008.0
6/27 2:10pm 254 14 G 22 86° 8% - - 17° 86.9° 59.2° - - 1008.0
6/27 2:00pm 284 13 G 22 86° 8% - - 19° 86.9° 59.2° - - 1008.0
6/27 1:50pm 254 12 G 22 86° 8% - - 18° 86.5° 59.2° - - 1008.0
6/27 1:40pm 260 11 G 22 86° 9% - - 19° 86.5° 59.2° - - 1008.0
6/27 1:30pm 261 11 G 19 85° 8% - - 18° 86.3° 59.2° - - 1008.0
6/27 1:20pm 261 12 G 21 85° 9% - - 19° 86.3° 59.2° - - 1009.0
6/27 1:10pm 267 11 G 20 85° 9% - - 19° 86° 59.2° - - 1009.0
6/27 1:00pm 262 12 G 21 85° 9% - - 20° 85.8° 59.2° - - 1009.0
6/27 12:50pm 278 12 G 20 85° 9% - - 19° 85.6° 59.2° - - 1009.0
6/27 12:40pm 266 11 G 18 85° 9% - - 20° 85.6° 59.2° - - 1009.0
6/27 12:30pm 260 12 G 22 84° 9% - - 20° 85.5° 59.2° - - 1009.0
6/27 12:20pm 252 12 G 21 85° 9% - - 20° 85.5° 59.2° - - 1009.0
6/27 12:10pm 266 11 G 19 84° 9% - - 20° 85.1° 59.2° - - 1009.0
6/27 12:00pm 267 11 G 23 84° 9% - - 19° 85.1° 59.2° - - 1009.0
6/27 11:50am 274 10 G 18 84° 9% - - 20° 84.9° 59.2° - - 1010.0
6/27 11:40am 272 10 G 19 84° 9% - - 19° 84.9° 59.2° - - 1010.0
6/27 11:30am 270 11 G 22 84° 9% - - 19° 84.9° 59.2° - - 1010.0
6/27 11:20am 264 11 G 19 83° 9% - - 19° 83.8° 59.2° - - 1010.0
6/27 11:10am 269 11 G 20 83° 9% - - 19° 83.4° 59.2° - - 1010.0
6/27 11:00am 278 12 G 19 82° 9% - - 19° 83.3° 59.2° - - 1010.0
6/27 10:50am 262 11 G 20 82° 9% - - 19° 83.3° 59.2° - - 1010.0
6/27 10:40am 265 10 G 20 82° 9% - - 19° 83.3° 59.2° - - 1010.0
6/27 10:30am 277 10 G 17 82° 10% - - 19° 82.6° 59.2° - - 1010.0
6/27 10:20am 284 9 G 17 82° 10% - - 20° 82.6° 59.2° - - 1010.0
6/27 10:10am 264 8 G 18 82° 10% - - 20° 82.3° 59.2° - - 1010.0
6/27 10:00am 271 10 G 16 81° 10% - - 21° 81.9° 59.2° - - 1010.0
6/27 9:50am 276 8 G 14 81° 11% - - 21° 81.8° 59.2° - - 1010.0
6/27 9:40am 266 10 G 16 80° 11% - - 20° 80.5° 59.2° - - 1010.0
6/27 9:30am 273 11 G 18 79° 11% - - 20° 79.6° 59.2° - - 1011.0
6/27 9:20am 271 10 G 17 79° 11% - - 20° 79.6° 59.2° - - 1011.0
6/27 9:10am 282 9 G 17 79° 11% - - 20° 79.6° 59.2° - - 1011.0
6/27 9:00am 273 8 G 15 79° 11% - - 21° 79.1° 59.2° - - 1011.0
6/27 8:50am 261 8 G 14 78° 12% - - 20° 78.6° 59.2° - - 1011.0
6/27 8:40am 269 8 G 15 78° 12% - - 20° 78.1° 59.2° - - 1011.0
6/27 8:30am 268 7 G 12 77° 12% - - 21° 77.8° 59.2° - - 1011.0
6/27 8:20am 266 5 G 10 77° 13% - - 22° 77.3° 59.2° - - 1011.0
6/27 8:10am 274 4 G 8 76° 13% - - 22° 77.1° 59.2° - - 1011.0
6/27 8:00am 293 2 G 6 76° 13% - - 23° 77.1° 59.2° - - 1011.0
6/27 7:40am 41 3 G 4 74° 15% - - 23° 75° 59.2° - - 1012.0
6/27 7:30am 43 3 G 5 73° 17% - - 25° 73.6° 59.2° - - 1012.0
6/27 7:20am 46 3 G 5 71° 18% - - 25° 72° 59.2° - - 1013.0
6/27 7:10am 42 3 G 5 71° 17% - - 24° 71.5° 59.2° - - 1013.0
6/27 7:00am 34 3 G 5 70° 17% - - 23° 71.3° 59.2° - - 1013.0
6/27 6:50am 46 5 G 8 67° 19% - - 23° 69.5° 59.2° - - 1014.0
6/27 6:40am 47 4 G 6 66° 19% - - 23° 69.5° 59.2° - - 1014.0
6/27 6:30am 54 4 G 5 66° 18% - - 21° 69.5° 59.2° - - 1014.0
6/27 6:20am 55 3 G 5 64° 19% - - 21° 69.5° 59.2° - - 1014.0
6/27 6:10am 66 4 G 6 65° 17% - - 20° 69.5° 59.2° - - 1014.0
6/27 6:00am 67 4 G 7 64° 18% - - 20° 69.5° 59.2° - - 1014.0
6/27 5:50am 57 6 G 8 61° 20% - - 20° 69.5° 59.2° - - 1015.0
6/27 5:40am 53 5 G 8 60° 21% - - 20° 69.5° 59.2° - - 1015.0
6/27 5:30am 46 7 G 8 60° 21% - - 20° 69.5° 59.2° - - 1015.0
6/27 5:20am 55 6 G 9 60° 21% - - 20° 69.5° 59.2° - - 1015.0
6/27 5:10am 60 5 G 6 61° 20% - - 19° 69.5° 59.8° - - 1015.0
6/27 5:00am 54 5 G 7 62° 20% - - 20° 69.5° 60.2° - - 1015.0
6/27 4:50am 51 6 G 8 62° 19% - - 20° 69.5° 60.2° - - 1014.0
6/27 4:40am 53 6 G 7 61° 21% - - 21° 69.5° 60.2° - - 1015.0
6/27 4:30am 52 6 G 7 61° 22% - - 21° 69.5° 60.2° - - 1015.0
6/27 4:20am 52 5 G 7 61° 21% - - 21° 69.5° 60.2° - - 1015.0
6/27 4:10am 45 5 G 6 63° 20% - - 21° 69.5° 61.2° - - 1014.0
6/27 4:00am 40 5 G 5 63° 19% - - 21° 69.5° 62.3° - - 1014.0
6/27 3:50am 40 5 G 6 64° 18% - - 21° 69.5° 63° - - 1014.0
6/27 3:40am 39 5 G 6 65° 18% - - 20° 69.5° 63° - - 1014.0
6/27 3:30am 34 5 G 6 66° 17% - - 20° 69.5° 63° - - 1013.0
6/27 3:20am 30 6 G 6 66° 17% - - 20° 69.5° 63° - - 1013.0
6/27 3:10am 34 5 G 6 66° 17% - - 20° 69.5° 63° - - 1014.0
6/27 3:00am 35 5 G 7 65° 18% - - 21° 69.5° 63° - - 1014.0
6/27 2:50am 36 6 G 7 65° 18% - - 21° 69.5° 63° - - 1014.0
6/27 2:40am 41 6 G 6 63° 19% - - 20° 69.5° 63° - - 1015.0
6/27 2:30am 38 5 G 5 66° 17% - - 20° 69.5° 64.4° - - 1014.0
6/27 2:20am 29 5 G 5 68° 15% - - 18° 69.5° 66.7° - - 1014.0
6/27 2:10am 23 5 G 5 68° 15% - - 18° 69.5° 67.3° - - 1014.0
6/27 2:00am 17 5 G 5 68° 14% - - 17° 69.5° 67.3° - - 1014.0
6/27 1:50am 13 5 G 5 68° 14% - - 17° 69.5° 67.7° - - 1013.0
6/27 1:40am 4 5 G 5 69° 13% - - 17° 69.5° 67.7° - - 1013.0
6/27 1:30am 5 5 G 5 69° 13% - - 16° 69.5° 67.7° - - 1014.0
6/27 1:20am 5 5 G 5 68° 13% - - 16° 69.5° 67.7° - - 1014.0
6/27 1:10am 15 5 G 6 68° 12% - - 15° 69.5° 67.7° - - 1014.0
6/27 1:00am 13 5 G 5 69° 12% - - 14° 69.5° 67.7° - - 1014.0
6/27 12:50am 3 4 G 5 69° 12% - - 13° 69.5° 67.7° - - 1014.0
6/27 12:40am 6 4 G 5 69° 12% - - 14° 69.5° 67.7° - - 1014.0
6/27 12:30am 23 3 G 5 68° 12% - - 14° 69.4° 67.7° - - 1014.0
6/27 12:20am 23 3 G 4 68° 12% - - 14° 69.4° 67.7° - - 1014.0
6/27 12:10am 13 3 G 4 69° 12% - - 14° 69.4° 68.6° - - 1014.0
6/27 12:00am 5 3 G 4 69° 12% - - 15° 91.2° 67° - - 1014.0
6/26 11:50pm 52 2 G 3 67° 14% - - 16° 91.2° 67° - - 1015.0
6/26 11:40pm 36 2 G 3 69° 13% - - 16° 91.2° 67.5° - - 1014.0
6/26 11:30pm 2 3 G 4 70° 13% - - 16° 91.2° 68.7° - - 1014.0
6/26 11:20pm 1 3 G 3 70° 13% - - 16° 91.2° 68.7° - - 1014.0
6/26 11:10pm 4 3 G 4 71° 12% - - 16° 91.2° 68.7° - - 1014.0
6/26 11:00pm 4 3 G 4 72° 12% - - 16° 91.2° 68.7° - - 1014.0
6/26 10:50pm 350 3 G 5 72° 12% - - 17° 91.2° 68.7° - - 1014.0
6/26 10:40pm 319 2 G 5 73° 12% - - 18° 91.2° 68.7° - - 1014.0
6/26 10:30pm 309 3 G 6 73° 12% - - 18° 91.2° 68.7° - - 1013.0
6/26 10:20pm 309 3 G 6 73° 13% - - 19° 91.2° 68.7° - - 1013.0
6/26 10:10pm 310 3 G 7 74° 13% - - 19° 91.2° 68.7° - - 1013.0
6/26 10:00pm 315 3 G 6 74° 13% - - 19° 91.2° 68.7° - - 1013.0
6/26 9:50pm 320 3 G 4 74° 13% - - 19° 91.2° 68.7° - - 1013.0
6/26 9:40pm 327 3 G 5 74° 13% - - 19° 91.2° 68.7° - - 1013.0
6/26 9:30pm 329 3 G 5 75° 12% - - 19° 91.2° 68.7° - - 1013.0
6/26 9:20pm 336 3 G 6 74° 12% - - 19° 91.2° 68.7° - - 1013.0
6/26 9:10pm 334 2 G 6 75° 12% - - 19° 91.2° 68.7° - - 1013.0
6/26 9:00pm 351 2 G 3 75° 12% - - 19° 91.2° 68.7° - - 1013.0
6/26 8:50pm 329 3 G 6 76° 12% - - 20° 91.2° 68.7° - - 1012.0
6/26 8:40pm 319 3 G 6 76° 12% - - 20° 91.2° 68.7° - - 1012.0
6/26 8:30pm 310 3 G 7 77° 12% - - 21° 91.2° 68.7° - - 1012.0
6/26 8:20pm 308 4 G 8 77° 12% - - 21° 91.2° 68.7° - - 1012.0
6/26 8:10pm 291 6 G 12 79° 11% - - 21° 91.2° 68.7° - - 1012.0
6/26 8:00pm 281 7 G 12 79° 11% - - 21° 91.2° 68.7° - - 1011.0
6/26 7:50pm 278 8 G 15 80° 11% - - 21° 91.2° 68.7° - - 1011.0
6/26 7:40pm 275 9 G 16 81° 11% - - 22° 91.2° 68.7° - - 1011.0
6/26 7:30pm 271 9 G 15 82° 11% - - 22° 91.2° 68.7° - - 1010.0
6/26 7:20pm 269 11 G 19 83° 11% - - 22° 91.2° 68.7° - - 1010.0
6/26 7:10pm 272 11 G 21 83° 11% - - 23° 91.2° 68.7° - - 1010.0
6/26 7:00pm 271 11 G 18 84° 11% - - 23° 91.2° 68.7° - - 1010.0
6/26 6:50pm 266 12 G 21 84° 11% - - 23° 91.2° 68.7° - - 1010.0
6/26 6:40pm 271 12 G 21 85° 11% - - 23° 91.2° 68.7° - - 1010.0
6/26 6:30pm 277 13 G 25 85° 10% - - 23° 91.2° 68.7° - - 1009.0
6/26 6:20pm 269 12 G 22 85° 10% - - 24° 91.2° 68.7° - - 1009.0
6/26 6:10pm 263 14 G 25 86° 10% - - 23° 91.2° 68.7° - - 1009.0
6/26 6:00pm 266 14 G 23 86° 10% - - 23° 91.2° 68.7° - - 1009.0
6/26 5:50pm 264 13 G 23 86° 10% - - 23° 91.2° 68.7° - - 1009.0
6/26 5:40pm 260 12 G 21 87° 10% - - 23° 91.2° 68.7° - - 1009.0
6/26 5:30pm 267 16 G 31 87° 10% - - 23° 91.2° 68.7° - - 1009.0
6/26 5:20pm 259 12 G 22 87° 10% - - 23° 91.2° 68.7° - - 1010.0
6/26 5:10pm 244 16 G 26 87° 10% - - 23° 91.2° 68.7° - - 1010.0
6/26 5:00pm 261 13 G 26 87° 10% - - 23° 91.2° 68.7° - - 1010.0
6/26 4:50pm 258 14 G 24 88° 10% - - 24° 91.2° 68.7° - - 1010.0
6/26 4:40pm 261 12 G 26 88° 10% - - 24° 91.2° 68.7° - - 1010.0
6/26 4:30pm 266 13 G 25 88° 10% - - 24° 91.2° 68.7° - - 1010.0
6/26 4:20pm 258 15 G 25 88° 10% - - 24° 91.2° 68.7° - - 1010.0
6/26 4:10pm 270 13 G 22 89° 10% - - 24° 91.2° 68.7° - - 1010.0
6/26 4:00pm 257 13 G 23 89° 10% - - 24° 91.2° 68.7° - - 1010.0
6/26 3:50pm 270 14 G 20 89° 9% - - 24° 91.2° 68.7° - - 1010.0
6/26 3:40pm 262 13 G 23 89° 10% - - 25° 91.2° 68.7° - - 1010.0
6/26 3:30pm 262 12 G 23 90° 10% - - 25° 91.2° 68.7° - - 1010.0
6/26 3:20pm 266 12 G 25 89° 10% - - 25° 91.2° 68.7° - - 1010.0
6/26 3:10pm 263 12 G 23 90° 10% - - 25° 91.2° 68.7° - - 1010.0
6/26 3:00pm 269 11 G 23 90° 10% - - 26° 91.2° 68.7° - - 1010.0
6/26 2:50pm 277 11 G 18 90° 10% - - 27° 91.2° 68.7° - - 1010.0
6/26 2:40pm 265 13 G 24 90° 10% - - 27° 91.2° 68.7° - - 1010.0
6/26 2:30pm 258 13 G 24 90° 10% - - 27° 91.2° 68.7° - - 1010.0
6/26 2:20pm 267 11 G 20 89° 10% - - 26° 91.2° 68.7° - - 1010.0
6/26 2:10pm 265 10 G 19 90° 10% - - 26° 91.2° 68.7° - - 1010.0
6/26 2:00pm 255 12 G 21 90° 10% - - 26° 91.2° 68.7° - - 1010.0
6/26 1:50pm 252 12 G 20 89° 10% - - 26° 91.2° 68.7° - - 1010.0
6/26 1:40pm 248 13 G 21 89° 10% - - 25° 91.2° 68.7° - - 1010.0
6/26 1:30pm 265 10 G 23 90° 10% - - 26° 91.2° 68.7° - - 1010.0
6/26 1:20pm 275 12 G 18 89° 10% - - 25° 90.6° 68.7° - - 1011.0
6/26 1:10pm 267 12 G 20 89° 10% - - 25° 90.6° 68.7° - - 1011.0
6/26 1:00pm 265 13 G 23 90° 10% - - 25° 90.6° 68.7° - - 1011.0
6/26 12:50pm 266 9 G 16 90° 10% - - 26° 90.6° 68.7° - - 1010.0
6/26 12:40pm 273 11 G 19 90° 10% - - 25° 90.6° 68.7° - - 1011.0
6/26 12:30pm 284 10 G 18 89° 10% - - 25° 90.5° 68.7° - - 1011.0
6/26 12:20pm 274 11 G 19 89° 9% - - 24° 90.5° 68.7° - - 1011.0
6/26 12:10pm 267 13 G 20 89° 9% - - 23° 90.5° 68.7° - - 1011.0
6/26 12:00pm 273 9 G 20 90° 9% - - 23° 90.3° 68.7° - - 1011.0
6/26 11:50am 275 9 G 18 89° 9% - - 22° 89.9° 68.7° - - 1011.0
6/26 11:40am 266 10 G 21 89° 9% - - 22° 89.8° 68.7° - - 1011.0
6/26 11:30am 262 10 G 17 89° 9% - - 23° 89.6° 68.7° - - 1011.0
6/26 11:20am 272 11 G 19 89° 9% - - 23° 89.5° 68.7° - - 1011.0
6/26 11:10am 294 11 G 21 88° 9% - - 22° 89.5° 68.7° - - 1011.0
6/26 11:00am 263 10 G 16 89° 9% - - 24° 89.5° 68.7° - - 1011.0
6/26 10:50am 280 10 G 17 88° 10% - - 24° 88.8° 68.7° - - 1011.0
6/26 10:40am 278 10 G 17 88° 10% - - 24° 88.4° 68.7° - - 1011.0
6/26 10:30am 270 10 G 19 88° 10% - - 24° 88.4° 68.7° - - 1011.0
6/26 10:20am 284 10 G 18 88° 10% - - 24° 88.4° 68.7° - - 1011.0
6/26 10:10am 292 9 G 18 88° 10% - - 25° 88.4° 68.7° - - 1011.0
6/26 10:00am 287 10 G 18 87° 10% - - 25° 87.9° 68.7° - - 1011.0
6/26 9:50am 287 10 G 19 87° 10% - - 25° 87.9° 68.7° - - 1011.0
6/26 9:40am 288 9 G 16 87° 11% - - 26° 87.9° 68.7° - - 1011.0
6/26 9:30am 277 7 G 15 87° 11% - - 26° 87.7° 68.7° - - 1011.0
6/26 9:20am 271 8 G 12 86° 11% - - 26° 87° 68.7° - - 1011.0
6/26 9:10am 278 7 G 14 86° 11% - - 26° 86.5° 68.7° - - 1011.0
6/26 9:00am 277 8 G 14 85° 12% - - 27° 86° 68.7° - - 1011.0
6/26 8:50am 268 7 G 13 85° 12% - - 27° 85.4° 68.7° - - 1012.0
6/26 8:40am 272 7 G 13 85° 12% - - 27° 85.1° 68.7° - - 1012.0
6/26 8:30am 274 6 G 10 84° 13% - - 29° 84.8° 68.7° - - 1012.0
6/26 8:20am 263 5 G 9 84° 14% - - 30° 84.3° 68.7° - - 1012.0
6/26 8:10am 233 3 G 6 84° 17% - - 35° 84.3° 68.7° - - 1012.0
6/26 8:00am 194 1 G 2 84° 17% - - 34° 84.3° 68.7° - - 1012.0
6/26 7:50am 160 1 G 2 83° 17% - - 34° 83.9° 68.7° - - 1012.0
6/26 7:40am 109 1 G 2 82° 20% - - 37° 82.9° 68.7° - - 1012.0
6/26 7:30am 84 1 G 2 79° 22% - - 37° 80.9° 68.7° - - 1013.0
6/26 7:20am 86 2 G 3 78° 22% - - 35° 78.4° 68.7° - - 1013.0
6/26 7:10am 108 2 G 3 77° 20% - - 33° 77.6° 68.7° - - 1013.0
6/26 7:00am 101 1 G 2 77° 19% - - 31° 77.4° 68.7° - - 1013.0
6/26 6:50am 80 1 G 2 76° 18% - - 30° 77.4° 68.7° - - 1013.0
6/26 6:40am 25 2 G 3 75° 18% - - 28° 77.4° 68.7° - - 1013.0
6/26 6:30am 28 4 G 5 74° 17% - - 27° 77.4° 68.7° - - 1014.0
6/26 6:20am 68 3 G 4 74° 18% - - 27° 77.4° 68.7° - - 1014.0
6/26 6:10am 82 4 G 5 74° 18% - - 27° 77.4° 68.7° - - 1014.0
6/26 6:00am 94 5 G 5 72° 19% - - 28° 77.4° 68.7° - - 1014.0